Pagrindinis puslapis
METAR-TAF:

METAR-TAF

Oro uostai :

Trevico, Italija

platuma: 41-03N, ilguma: 015-14E, Aukštis: 1085 m

Dabartinis oras

Ataskaita buvo paskelbta 1 valandą ir 21 minutes, ne 19:55 UTC
Vėjas 15 kt iš Vakarų
Temperatūra 4°C
Drėgmė 93%
Slėgis 1019 hPa
Matomumas 10 km arba daugiau
Mažai debesys ne aukštis 200 ft

METAR: LIRT 271955Z 26015KT 9999 FEW002 04/03 Q1019 RMK FEW MON INVIS VAL NIL VIS MIN 9999

Laikas: 22:16 (21:16 UTC)


TAF: trūkstamas

Orai ataskaitas ir orų prognozės (METAR, TAF).

turimą stotys yra geltonos ir raudonos taškus žemėlapyje.

Perkelti pele per norėdami pamatyti stoties vardą.

Tada spustelėkite, norėdami matyti oro stebėjimo ir prognozės.

Norėdami pakeisti žemėlapį: spustelėkite ant žalios mygtukų su juodo kryžiaus žemyn,; žalią mygtuką su brūkšneliu, jei norite nutolinti; arba žalių rodyklių gretimoms žemėlapius.


METAR-TAF: